Time;durP1;ratioP1;P1;durP2;ratioP2;P2;SDS_P1;SDS_P2;PMS_P1;PMS_P2;Temp;Humidity;BMP_temperature;BMP_pressure;BME280_temperature;BME280_humidity;BME280_pressure;Samples;Min_cycle;Max_cycle;Signal;HPM_P1;HPM_P2
2022/08/19 00:02:00;;;;;;;36.83;7.18;;;28.70;99.90;;;;;;4211680;28;20093;-72
2022/08/19 00:04:09;;;;;;;22.52;5.80;;;28.80;99.90;;;;;;4202997;28;20098;-73
2022/08/19 00:06:14;;;;;;;15.90;5.07;;;28.80;99.90;;;;;;4209079;28;20078;-73
2022/08/19 00:08:25;;;;;;;8.90;4.47;;;28.80;99.90;;;;;;4210244;28;20383;-72
2022/08/19 00:10:30;;;;;;;9.18;4.88;;;28.70;99.90;;;;;;4209592;28;20078;-72
2022/08/19 00:12:35;;;;;;;9.77;4.75;;;28.80;99.90;;;;;;4211618;28;20044;-70
2022/08/19 00:14:53;;;;;;;12.57;4.22;;;28.80;99.90;;;;;;4211881;28;20040;-73
2022/08/19 00:16:58;;;;;;;10.05;4.03;;;28.80;99.90;;;;;;4212457;28;20075;-72
2022/08/19 00:19:05;;;;;;;11.23;4.68;;;28.80;99.90;;;;;;4211412;28;20087;-71
2022/08/19 00:21:14;;;;;;;9.65;4.85;;;28.80;99.90;;;;;;4211534;28;20044;-71
2022/08/19 00:23:18;;;;;;;9.77;4.47;;;28.80;99.90;;;;;;4211356;28;20138;-68
2022/08/19 00:25:23;;;;;;;10.25;4.32;;;28.90;99.90;;;;;;4210757;28;20142;-69
2022/08/19 00:27:34;;;;;;;8.35;4.35;;;28.90;99.90;;;;;;4212162;28;20598;-70
2022/08/19 00:29:39;;;;;;;10.88;4.78;;;28.90;99.90;;;;;;4212680;28;20048;-71
2022/08/19 00:31:44;;;;;;;9.90;4.30;;;28.90;99.90;;;;;;4204370;28;20063;-70
2022/08/19 00:33:55;;;;;;;8.73;4.20;;;28.90;99.90;;;;;;4200052;28;20430;-70
2022/08/19 00:36:00;;;;;;;10.18;4.32;;;28.80;99.90;;;;;;4195165;28;20106;-70
2022/08/19 00:38:06;;;;;;;11.75;4.43;;;28.90;99.90;;;;;;4209750;28;20056;-71
2022/08/19 00:40:14;;;;;;;7.72;3.75;;;29.00;99.90;;;;;;4209477;28;20071;-71
2022/08/19 00:42:19;;;;;;;8.57;4.10;;;29.00;99.90;;;;;;4209156;28;20721;-70
2022/08/19 00:44:25;;;;;;;8.57;4.10;;;29.00;99.90;;;;;;4208129;28;20413;-71
2022/08/19 00:46:33;;;;;;;10.10;4.70;;;29.10;99.90;;;;;;4202294;28;20044;-71
2022/08/19 00:48:37;;;;;;;16.95;5.07;;;29.10;99.90;;;;;;4192681;28;20048;-71
2022/08/19 00:50:42;;;;;;;16.70;5.25;;;29.10;99.90;;;;;;4192602;28;20055;-71
2022/08/19 00:52:56;;;;;;;9.07;4.28;;;29.20;99.90;;;;;;4190375;28;20076;-68
2022/08/19 00:55:01;;;;;;;9.85;3.80;;;29.30;99.90;;;;;;4190962;28;20099;-68
2022/08/19 00:57:08;;;;;;;9.13;4.40;;;29.20;99.90;;;;;;4191221;28;20151;-71
2022/08/19 00:59:17;;;;;;;11.15;4.22;;;29.20;99.90;;;;;;4192599;28;20080;-72
2022/08/19 01:01:42;;;;;;;16.52;4.35;;;29.30;99.90;;;;;;4194875;28;20700;-71
2022/08/19 01:03:47;;;;;;;10.77;4.97;;;29.40;99.90;;;;;;4199631;28;20063;-70
2022/08/19 01:06:02;;;;;;;10.65;4.18;;;29.50;99.90;;;;;;4193380;28;20801;-68
2022/08/19 01:08:07;;;;;;;10.90;4.05;;;29.50;99.90;;;;;;4209488;28;20083;-68
2022/08/19 01:10:18;;;;;;;11.20;4.32;;;29.60;99.90;;;;;;4208914;28;20047;-68
2022/08/19 01:12:25;;;;;;;9.23;4.28;;;29.70;99.90;;;;;;4207507;28;20117;-68
2022/08/19 01:14:30;;;;;;;8.90;3.83;;;29.80;99.90;;;;;;4208457;28;20829;-68
2022/08/19 01:16:36;;;;;;;8.93;4.20;;;29.90;99.90;;;;;;4208424;28;20051;-68
2022/08/19 01:18:45;;;;;;;11.38;4.38;;;29.90;99.90;;;;;;4209104;28;20101;-68
2022/08/19 01:20:52;;;;;;;11.02;4.10;;;30.00;99.90;;;;;;4208815;28;20487;-70
2022/08/19 01:22:58;;;;;;;11.18;4.30;;;30.00;99.90;;;;;;4191880;28;20048;-68
2022/08/19 01:25:06;;;;;;;9.82;4.28;;;30.10;99.90;;;;;;4167599;28;20659;-72
2022/08/19 01:27:17;;;;;;;7.95;3.88;;;30.10;99.90;;;;;;4193325;28;20041;-72
2022/08/19 01:29:22;;;;;;;11.32;4.40;;;30.10;99.90;;;;;;4208240;28;20463;-72
2022/08/19 01:31:31;;;;;;;10.60;4.63;;;30.10;99.90;;;;;;4196041;28;20417;-72
2022/08/19 01:33:36;;;;;;;7.85;3.92;;;30.10;99.90;;;;;;4206827;28;20553;-72
2022/08/19 01:35:41;;;;;;;12.23;4.60;;;30.10;99.90;;;;;;4189698;28;20063;-72
2022/08/19 01:37:49;;;;;;;10.85;4.13;;;30.10;99.90;;;;;;4221788;28;20060;-72
2022/08/19 01:39:54;;;;;;;9.70;4.47;;;30.10;99.90;;;;;;4208328;28;20142;-72
2022/08/19 01:42:02;;;;;;;9.20;4.15;;;30.10;99.90;;;;;;4206937;28;20059;-72
2022/08/19 01:44:11;;;;;;;8.95;3.95;;;30.10;99.90;;;;;;4207622;28;20105;-72
2022/08/19 01:46:21;;;;;;;10.52;4.00;;;30.00;99.90;;;;;;4204998;28;20040;-72
2022/08/19 01:48:30;;;;;;;8.27;4.03;;;30.00;99.90;;;;;;4191676;28;20043;-72
2022/08/19 01:50:38;;;;;;;10.43;4.15;;;30.00;99.90;;;;;;4190056;28;20052;-72
2022/08/19 01:52:43;;;;;;;30.35;6.15;;;30.00;99.90;;;;;;4191277;28;20113;-72
2022/08/19 01:54:50;;;;;;;31.42;6.30;;;30.00;99.90;;;;;;4189512;28;20048;-72
2022/08/19 01:57:07;;;;;;;33.28;6.75;;;30.00;99.90;;;;;;4189716;28;20151;-73
2022/08/19 01:59:14;;;;;;;47.35;7.50;;;30.00;99.90;;;;;;4191273;28;20094;-71
2022/08/19 02:01:19;;;;;;;21.33;5.03;;;30.00;99.90;;;;;;4190181;28;20055;-73
2022/08/19 02:03:32;;;;;;;70.88;12.50;;;30.00;99.90;;;;;;4190260;28;20056;-72
2022/08/19 02:05:39;;;;;;;46.42;8.70;;;29.90;99.90;;;;;;4191020;28;20060;-72
2022/08/19 02:07:44;;;;;;;16.50;5.35;;;30.00;99.90;;;;;;4191051;28;20048;-71
2022/08/19 02:09:55;;;;;;;15.30;5.10;;;30.00;99.90;;;;;;4200053;28;20137;-73
2022/08/19 02:12:00;;;;;;;13.60;4.80;;;30.00;99.90;;;;;;4207534;28;20048;-71
2022/08/19 02:14:06;;;;;;;27.80;6.55;;;30.00;99.90;;;;;;4207051;28;20044;-71
2022/08/19 02:16:17;;;;;;;11.55;4.80;;;30.00;99.90;;;;;;4207657;28;20048;-72
2022/08/19 02:18:22;;;;;;;9.52;4.85;;;30.00;99.90;;;;;;4207905;28;20072;-71
2022/08/19 02:20:30;;;;;;;9.10;4.30;;;30.10;99.90;;;;;;4205908;28;20043;-71
2022/08/19 02:22:36;;;;;;;8.60;3.90;;;30.20;99.90;;;;;;4207632;28;20048;-71
2022/08/19 02:24:40;;;;;;;7.25;3.80;;;30.20;99.90;;;;;;4189323;28;20878;-72
2022/08/19 02:26:45;;;;;;;8.15;3.65;;;30.30;99.90;;;;;;4207937;28;20729;-71
2022/08/19 02:28:54;;;;;;;11.52;3.80;;;30.40;99.90;;;;;;4207501;28;20048;-74
2022/08/19 02:31:00;;;;;;;8.02;3.30;;;30.50;99.90;;;;;;4207698;28;20040;-72
2022/08/19 02:33:05;;;;;;;6.78;3.78;;;30.60;99.90;;;;;;4206145;28;20563;-72
2022/08/19 02:35:13;;;;;;;9.43;3.25;;;30.60;99.90;;;;;;4161411;28;20057;-72
2022/08/19 02:39:37;;;;;;;7.40;3.22;;;30.60;99.90;;;;;;4196201;28;20067;-73
2022/08/19 02:41:46;;;;;;;17.98;4.53;;;30.60;99.90;;;;;;4207920;28;20050;-73
2022/08/19 02:43:51;;;;;;;278.80;32.50;;;30.70;99.90;;;;;;4201840;28;20036;-71
2022/08/19 02:46:23;;;;;;;99.88;12.65;;;30.90;99.90;;;;;;4206292;28;20114;-71
2022/08/19 02:48:32;;;;;;;12.55;3.67;;;31.00;99.90;;;;;;4206406;28;20044;-71
2022/08/19 02:50:40;;;;;;;9.40;3.70;;;31.10;99.90;;;;;;4177803;28;20049;-71
2022/08/19 02:52:57;;;;;;;9.35;3.70;;;31.30;99.90;;;;;;4189354;28;20060;-72
2022/08/19 02:55:05;;;;;;;11.00;3.50;;;31.30;99.90;;;;;;4190085;28;20481;-72
2022/08/19 02:57:09;;;;;;;8.98;3.10;;;31.20;99.90;;;;;;4189405;28;20048;-72
2022/08/19 02:59:17;;;;;;;6.60;3.53;;;31.20;99.90;;;;;;4189694;28;20047;-72
2022/08/19 03:01:28;;;;;;;6.50;3.03;;;31.20;99.90;;;;;;4171329;28;20660;-73
2022/08/19 03:03:32;;;;;;;6.35;3.17;;;31.10;99.90;;;;;;4189619;28;20052;-70
2022/08/19 03:05:39;;;;;;;35.75;7.35;;;31.10;99.90;;;;;;4190368;28;20044;-69
2022/08/19 03:08:00;;;;;;;12.77;4.00;;;31.20;99.90;;;;;;4190868;28;20105;-70
2022/08/19 03:10:07;;;;;;;17.38;4.10;;;31.40;99.90;;;;;;4201027;28;20082;-70
2022/08/19 03:12:12;;;;;;;7.50;3.72;;;31.50;99.90;;;;;;4206114;28;20733;-70
2022/08/19 03:14:20;;;;;;;6.97;2.92;;;31.40;99.90;;;;;;4206515;28;20074;-69
2022/08/19 03:16:29;;;;;;;21.65;4.25;;;31.50;99.90;;;;;;4190656;28;20045;-69
2022/08/19 03:18:36;;;;;;;13.70;3.50;;;31.60;99.80;;;;;;4190419;28;20102;-69
2022/08/19 03:20:45;;;;;;;8.15;2.90;;;31.60;99.80;;;;;;4166136;28;20041;-69
2022/08/19 03:22:49;;;;;;;9.02;3.60;;;31.60;99.40;;;;;;4205771;28;20082;-69
2022/08/19 03:24:54;;;;;;;7.03;3.28;;;31.50;99.10;;;;;;4204904;28;20032;-69
2022/08/19 03:27:01;;;;;;;6.95;3.00;;;31.50;99.50;;;;;;4192121;28;20539;-69
2022/08/19 03:29:05;;;;;;;6.20;3.40;;;31.70;99.40;;;;;;4192292;28;20534;-69
2022/08/19 03:31:13;;;;;;;6.68;2.85;;;31.60;98.80;;;;;;4207713;28;20040;-69
2022/08/19 03:33:41;;;;;;;9.02;3.40;;;31.70;99.80;;;;;;4208730;28;20044;-69
2022/08/19 03:35:48;;;;;;;6.40;3.35;;;31.50;99.40;;;;;;4208365;28;20056;-69
2022/08/19 03:37:52;;;;;;;7.88;3.17;;;31.50;99.50;;;;;;4208560;28;20052;-70
2022/08/19 03:40:03;;;;;;;6.85;2.72;;;31.50;99.30;;;;;;4209806;28;20123;-69
2022/08/19 03:42:08;;;;;;;7.20;2.88;;;31.60;99.50;;;;;;4210473;28;20079;-70
2022/08/19 03:44:33;;;;;;;8.43;3.38;;;31.60;99.50;;;;;;4193358;28;20079;-70
2022/08/19 03:46:41;;;;;;;6.18;3.30;;;31.50;99.10;;;;;;4209810;28;20516;-69
2022/08/19 03:48:47;;;;;;;6.38;2.90;;;31.50;99.20;;;;;;4209959;28;20076;-70
2022/08/19 03:50:51;;;;;;;7.50;3.20;;;31.60;99.30;;;;;;4209789;28;20059;-70
2022/08/19 03:53:00;;;;;;;8.30;3.15;;;31.70;99.40;;;;;;4208504;28;20048;-70
2022/08/19 03:55:06;;;;;;;7.03;3.13;;;31.60;98.90;;;;;;4209062;28;20146;-70
2022/08/19 03:57:10;;;;;;;7.13;3.30;;;31.60;99.20;;;;;;4210088;28;20101;-70
2022/08/19 03:59:21;;;;;;;6.82;3.20;;;31.70;99.40;;;;;;4174114;28;20071;-69
2022/08/19 04:01:26;;;;;;;7.07;3.22;;;31.40;99.20;;;;;;4210067;28;20054;-70
2022/08/19 04:03:38;;;;;;;7.78;3.67;;;31.20;99.90;;;;;;4209468;28;20044;-70
2022/08/19 04:05:47;;;;;;;7.18;2.90;;;31.30;99.90;;;;;;4209008;28;20078;-69
2022/08/19 04:07:51;;;;;;;6.13;3.17;;;31.20;99.80;;;;;;4208538;28;20479;-69
2022/08/19 04:09:56;;;;;;;7.00;2.92;;;31.30;99.80;;;;;;4209467;28;20055;-69
2022/08/19 04:12:05;;;;;;;5.53;2.80;;;31.40;99.90;;;;;;4209860;28;20048;-69
2022/08/19 04:14:12;;;;;;;6.80;2.65;;;31.60;99.20;;;;;;4209531;28;20097;-69
2022/08/19 04:16:17;;;;;;;7.00;2.92;;;31.80;98.60;;;;;;4209786;28;20603;-69
2022/08/19 04:18:23;;;;;;;8.00;3.10;;;31.90;99.20;;;;;;4209641;28;20715;-69
2022/08/19 04:20:28;;;;;;;7.68;3.15;;;32.10;99.40;;;;;;4209208;28;20093;-70
2022/08/19 04:22:34;;;;;;;6.30;3.15;;;32.10;97.60;;;;;;4209397;28;20043;-70
2022/08/19 04:24:42;;;;;;;6.22;2.90;;;32.20;98.70;;;;;;4209012;28;20052;-70
2022/08/19 04:26:47;;;;;;;4.85;2.55;;;32.20;98.40;;;;;;4209430;28;20048;-70
2022/08/19 04:28:53;;;;;;;5.70;2.97;;;32.20;97.80;;;;;;4207785;28;20533;-70
2022/08/19 04:30:59;;;;;;;7.68;3.45;;;32.20;97.90;;;;;;4205829;28;20706;-71
2022/08/19 04:33:04;;;;;;;6.38;3.20;;;32.10;98.20;;;;;;4207407;28;20040;-71
2022/08/19 04:35:09;;;;;;;7.68;3.15;;;32.00;98.50;;;;;;4204704;28;20156;-71
2022/08/19 04:37:24;;;;;;;74.88;8.77;;;32.20;98.50;;;;;;4192327;28;20886;-71
2022/08/19 04:44:07;;;;;;;10.38;2.92;;;32.30;97.50;;;;;;4191177;28;20048;-70
2022/08/19 04:46:12;;;;;;;8.38;3.08;;;32.30;97.70;;;;;;4191739;28;20102;-70
2022/08/19 04:48:37;;;;;;;7.07;2.63;;;32.30;97.30;;;;;;4200693;28;20048;-70
2022/08/19 04:50:57;;;;;;;7.05;2.90;;;32.30;97.20;;;;;;4200893;28;20074;-70
2022/08/19 04:53:01;;;;;;;5.63;2.70;;;32.00;96.50;;;;;;4191685;28;20041;-70
2022/08/19 04:55:06;;;;;;;6.60;3.22;;;31.90;96.70;;;;;;4191066;28;20464;-70
2022/08/19 04:57:12;;;;;;;6.78;2.85;;;32.10;97.30;;;;;;4191646;28;20098;-71
2022/08/19 04:59:19;;;;;;;5.75;3.35;;;32.10;97.60;;;;;;4191780;28;20141;-70
2022/08/19 05:01:25;;;;;;;5.38;2.70;;;31.90;97.50;;;;;;4191455;28;20667;-70
2022/08/19 05:03:34;;;;;;;8.57;3.25;;;32.00;97.60;;;;;;4172588;28;20069;-70
2022/08/19 05:05:41;;;;;;;5.13;2.85;;;31.90;97.40;;;;;;4195254;28;20117;-70
2022/08/19 05:07:48;;;;;;;7.05;2.75;;;32.00;98.10;;;;;;4191610;28;20045;-70
2022/08/19 05:09:56;;;;;;;6.13;2.80;;;32.10;97.70;;;;;;4200233;28;20540;-70
2022/08/19 05:12:03;;;;;;;6.00;2.80;;;32.30;97.70;;;;;;4208134;28;20453;-71
2022/08/19 05:14:10;;;;;;;5.38;2.88;;;32.50;97.10;;;;;;4207886;28;20131;-71
2022/08/19 05:16:19;;;;;;;4.60;2.72;;;32.60;97.10;;;;;;4206576;28;20062;-72
2022/08/19 05:23:03;;;;;;;11.75;3.78;;;33.00;96.40;;;;;;4199852;28;20040;-71
2022/08/19 05:25:21;;;;;;;62.70;8.95;;;33.10;96.80;;;;;;4201030;28;20041;-71
2022/08/19 05:27:25;;;;;;;10.32;3.15;;;33.20;96.70;;;;;;4198937;28;20049;-72
2022/08/19 05:29:35;;;;;;;3.72;2.40;;;33.20;95.30;;;;;;4207836;28;20048;-71
2022/08/19 05:31:40;;;;;;;7.20;2.72;;;33.10;95.40;;;;;;4198395;28;20114;-71
2022/08/19 05:33:44;;;;;;;6.05;2.80;;;33.00;95.60;;;;;;4191022;28;20048;-71
2022/08/19 05:35:54;;;;;;;5.32;2.70;;;33.20;95.70;;;;;;4160653;28;20586;-71
2022/08/19 05:37:59;;;;;;;11.63;3.22;;;33.40;95.50;;;;;;4207737;28;20047;-70
2022/08/19 05:40:04;;;;;;;8.38;2.83;;;33.20;95.80;;;;;;4206355;28;20044;-71
2022/08/19 05:42:11;;;;;;;10.13;2.97;;;33.30;95.40;;;;;;4207821;28;20051;-71
2022/08/19 05:44:16;;;;;;;22.42;5.22;;;33.40;96.60;;;;;;4207299;28;20036;-71
2022/08/19 05:46:22;;;;;;;194.43;22.52;;;33.50;95.50;;;;;;4207622;28;20460;-71
2022/08/19 05:48:33;;;;;;;11.65;3.00;;;33.60;95.60;;;;;;4207861;28;20635;-72
2022/08/19 05:50:39;;;;;;;7.22;2.72;;;33.70;94.50;;;;;;4207285;28;20079;-71
2022/08/19 05:52:44;;;;;;;9.45;2.78;;;33.80;95.00;;;;;;4207579;28;20686;-72
2022/08/19 05:54:55;;;;;;;29.42;5.32;;;34.00;95.00;;;;;;4207711;28;20063;-72
2022/08/19 05:57:01;;;;;;;10.15;2.95;;;34.20;94.50;;;;;;4207910;28;20166;-72
2022/08/19 05:59:11;;;;;;;7.50;2.50;;;34.20;93.60;;;;;;4206525;28;20662;-72
2022/08/19 06:01:18;;;;;;;7.60;2.38;;;34.30;93.90;;;;;;4207481;28;20039;-72
2022/08/19 06:03:23;;;;;;;5.45;2.40;;;34.30;92.70;;;;;;4207804;28;20070;-72
2022/08/19 06:05:28;;;;;;;5.32;2.00;;;34.20;92.90;;;;;;4206668;28;20139;-72
2022/08/19 06:07:50;;;;;;;8.18;2.35;;;34.20;92.20;;;;;;4207405;28;20044;-72
2022/08/19 06:09:56;;;;;;;5.57;2.53;;;34.20;92.70;;;;;;4207834;28;20126;-72
2022/08/19 06:12:04;;;;;;;5.90;2.45;;;34.30;92.70;;;;;;4207625;28;20067;-72
2022/08/19 06:14:14;;;;;;;3.70;2.38;;;34.30;93.30;;;;;;4204820;28;20032;-72
2022/08/19 06:16:23;;;;;;;8.88;2.55;;;34.50;93.30;;;;;;4207074;28;20040;-72
2022/08/19 06:18:27;;;;;;;8.00;2.92;;;34.60;93.20;;;;;;4207472;28;20131;-72
2022/08/19 06:20:34;;;;;;;5.88;2.40;;;34.70;93.20;;;;;;4207070;28;20075;-73
2022/08/19 06:22:58;;;;;;;5.43;2.30;;;34.60;93.20;;;;;;4207437;28;20047;-73
2022/08/19 06:25:04;;;;;;;6.38;2.20;;;34.70;93.20;;;;;;4206435;28;20040;-72
2022/08/19 06:27:13;;;;;;;5.78;2.20;;;34.60;91.10;;;;;;4207569;28;20071;-73
2022/08/19 06:29:22;;;;;;;4.25;1.98;;;34.60;91.30;;;;;;4207456;28;20048;-72
2022/08/19 06:31:27;;;;;;;5.30;2.22;;;34.60;91.40;;;;;;4205606;28;20778;-72
2022/08/19 06:33:33;;;;;;;4.18;2.05;;;34.60;90.60;;;;;;4205631;28;20534;-72
2022/08/19 06:35:41;;;;;;;4.78;2.10;;;34.30;91.10;;;;;;4221540;28;20052;-73
2022/08/19 06:37:52;;;;;;;3.67;1.70;;;34.50;91.60;;;;;;4206643;28;20070;-72
2022/08/19 06:39:59;;;;;;;6.55;2.30;;;34.70;91.10;;;;;;4205490;28;20392;-71
2022/08/19 06:42:06;;;;;;;4.43;2.28;;;34.50;91.80;;;;;;4207090;28;20075;-71
2022/08/19 06:44:13;;;;;;;7.78;2.05;;;34.70;92.30;;;;;;4205736;28;20047;-71
2022/08/19 06:46:24;;;;;;;4.70;1.83;;;34.80;90.30;;;;;;4206812;28;20131;-72
2022/08/19 06:48:29;;;;;;;6.15;2.30;;;34.80;90.80;;;;;;4206871;28;20043;-72
2022/08/19 06:50:36;;;;;;;5.10;2.28;;;34.60;90.60;;;;;;4207250;28;20526;-72
2022/08/19 06:52:46;;;;;;;5.43;1.90;;;34.70;91.00;;;;;;4189657;28;20083;-72
2022/08/19 06:54:51;;;;;;;5.40;2.10;;;34.60;91.30;;;;;;4188783;28;20060;-72
2022/08/19 06:57:01;;;;;;;6.18;1.95;;;34.80;91.60;;;;;;4188677;28;20044;-72
2022/08/19 06:59:11;;;;;;;6.40;2.20;;;34.90;91.00;;;;;;4191586;28;20059;-70
2022/08/19 07:01:17;;;;;;;2.78;2.00;;;35.00;90.00;;;;;;4192990;28;20114;-72
2022/08/19 07:03:21;;;;;;;11.93;2.72;;;35.00;89.20;;;;;;4193775;28;20056;-71
2022/08/19 07:05:30;;;;;;;13.15;3.00;;;35.10;90.10;;;;;;4193039;28;20053;-71
2022/08/19 07:07:35;;;;;;;6.65;2.25;;;35.20;90.40;;;;;;4193774;28;20437;-73
2022/08/19 07:09:42;;;;;;;4.85;2.00;;;35.30;88.90;;;;;;4200684;28;20466;-71
2022/08/19 07:12:01;;;;;;;8.40;2.00;;;35.10;89.50;;;;;;4224871;28;20048;-71
2022/08/19 07:14:09;;;;;;;4.97;1.63;;;34.70;90.00;;;;;;4209307;28;20139;-71
2022/08/19 07:16:24;;;;;;;13.00;5.38;;;34.60;90.10;;;;;;4209866;28;20101;-72
2022/08/19 07:18:34;;;;;;;5.95;2.10;;;34.80;90.70;;;;;;4209509;28;20048;-72
2022/08/19 07:20:39;;;;;;;8.27;2.65;;;35.00;90.30;;;;;;4209785;28;20044;-72
2022/08/19 07:22:45;;;;;;;6.15;2.58;;;34.90;91.00;;;;;;4194689;28;20426;-72
2022/08/19 07:24:52;;;;;;;8.40;2.70;;;35.00;91.60;;;;;;4201764;28;20064;-71
2022/08/19 07:27:00;;;;;;;7.03;2.40;;;34.90;91.30;;;;;;4210403;28;20055;-72
2022/08/19 07:29:04;;;;;;;7.93;2.53;;;34.90;91.40;;;;;;4207151;28;20603;-73
2022/08/19 07:31:12;;;;;;;14.88;7.78;;;35.10;91.60;;;;;;4216445;28;20138;-71
2022/08/19 07:33:18;;;;;;;12.13;7.82;;;35.30;91.40;;;;;;4208148;28;20211;-72
2022/08/19 07:35:23;;;;;;;6.80;2.42;;;35.10;90.60;;;;;;4207322;28;20044;-72
2022/08/19 07:37:32;;;;;;;6.68;2.45;;;34.70;90.70;;;;;;4197640;28;20160;-72
2022/08/19 07:39:37;;;;;;;5.68;2.70;;;34.40;91.30;;;;;;4207171;28;20052;-72
2022/08/19 07:41:42;;;;;;;8.80;2.50;;;34.70;91.30;;;;;;4209213;28;20052;-73
2022/08/19 07:43:49;;;;;;;5.32;2.25;;;34.90;90.40;;;;;;4209300;28;20052;-72
2022/08/19 07:45:56;;;;;;;6.40;2.17;;;34.80;90.40;;;;;;4209056;28;20040;-71
2022/08/19 07:48:01;;;;;;;6.53;2.33;;;34.60;90.70;;;;;;4198823;28;20055;-71
2022/08/19 07:50:09;;;;;;;9.25;2.33;;;34.40;90.40;;;;;;4206809;28;20051;-72
2022/08/19 07:52:14;;;;;;;4.22;1.88;;;34.40;90.90;;;;;;4207331;28;20040;-72
2022/08/19 07:54:21;;;;;;;5.63;2.10;;;34.50;90.70;;;;;;4225139;28;20055;-72
2022/08/19 07:56:30;;;;;;;6.75;2.05;;;34.50;91.20;;;;;;4202560;28;20040;-73
2022/08/19 07:58:37;;;;;;;7.70;2.45;;;34.50;90.50;;;;;;4192877;28;20122;-71
2022/08/19 08:00:42;;;;;;;4.63;2.08;;;34.50;90.70;;;;;;4192134;28;20040;-71
2022/08/19 08:02:51;;;;;;;4.70;2.28;;;34.60;90.80;;;;;;4192929;28;20066;-71
2022/08/19 08:09:37;;;;;;;22.75;10.10;;;34.60;90.80;;;;;;4198109;28;20050;-72
2022/08/19 08:11:48;;;;;;;23.60;10.00;;;34.80;90.90;;;;;;4208494;28;20044;-71
2022/08/19 08:13:52;;;;;;;11.80;3.47;;;34.70;90.50;;;;;;4209220;28;20117;-71
2022/08/19 08:16:04;;;;;;;6.78;2.42;;;34.50;90.40;;;;;;4209298;28;20060;-72
2022/08/19 08:18:14;;;;;;;9.15;3.63;;;34.50;90.70;;;;;;4207524;28;20604;-72
2022/08/19 08:20:19;;;;;;;9.25;2.40;;;34.50;90.80;;;;;;4209148;28;20506;-71
2022/08/19 08:24:45;;;;;;;7.90;3.20;;;34.70;90.60;;;;;;4192310;28;20041;-71
2022/08/19 08:26:49;;;;;;;14.70;6.10;;;34.80;90.60;;;;;;4190823;28;20067;-73
2022/08/19 08:29:01;;;;;;;13.40;6.93;;;34.80;90.00;;;;;;4192225;28;20792;-71
2022/08/19 08:31:15;;;;;;;8.40;3.88;;;34.50;91.10;;;;;;4192204;28;20124;-71
2022/08/19 08:33:21;;;;;;;6.03;1.98;;;34.40;91.10;;;;;;4208132;28;20075;-71
2022/08/19 08:35:39;;;;;;;6.35;2.50;;;34.50;90.50;;;;;;4208954;28;20138;-72
2022/08/19 08:37:45;;;;;;;7.18;2.55;;;34.60;90.80;;;;;;4208907;28;20152;-71
2022/08/19 08:39:54;;;;;;;14.05;7.43;;;34.70;91.10;;;;;;4208876;28;20048;-72
2022/08/19 08:42:21;;;;;;;47.20;33.20;;;34.80;91.10;;;;;;4172473;28;20594;-72
2022/08/19 08:44:45;;;;;;;8.32;5.22;;;34.90;91.00;;;;;;4208627;28;20048;-73
2022/08/19 08:46:54;;;;;;;6.60;2.65;;;34.80;89.60;;;;;;4208256;28;20097;-73
2022/08/19 08:49:16;;;;;;;7.05;1.90;;;34.80;90.20;;;;;;4209006;28;20047;-73
2022/08/19 08:51:26;;;;;;;6.68;2.10;;;34.90;88.90;;;;;;4208356;28;20449;-73
2022/08/19 08:53:36;;;;;;;5.38;2.35;;;34.90;89.20;;;;;;4208847;28;20570;-72
2022/08/19 08:55:46;;;;;;;7.47;3.22;;;34.80;89.90;;;;;;4208630;28;20055;-73
2022/08/19 08:58:07;;;;;;;6.38;2.10;;;35.00;90.40;;;;;;4208735;28;20605;-72
2022/08/19 09:00:16;;;;;;;5.40;2.38;;;34.90;89.50;;;;;;4190488;28;20151;-73
2022/08/19 09:02:24;;;;;;;6.65;3.00;;;34.80;89.00;;;;;;4208445;28;20071;-71
2022/08/19 09:04:29;;;;;;;7.07;2.50;;;34.80;89.30;;;;;;4208582;28;20043;-72
2022/08/19 09:06:53;;;;;;;6.68;2.22;;;34.70;88.90;;;;;;4208480;28;20048;-73
2022/08/19 09:09:20;;;;;;;5.05;2.20;;;34.50;89.00;;;;;;4208260;28;20121;-73
2022/08/19 09:11:48;;;;;;;5.68;2.17;;;34.40;89.60;;;;;;4223918;28;20052;-72
2022/08/19 09:14:24;;;;;;;6.53;1.92;;;34.40;90.10;;;;;;4191493;28;20098;-73
2022/08/19 09:16:52;;;;;;;7.05;2.47;;;34.40;90.40;;;;;;4156088;28;20876;-73
2022/08/19 09:19:02;;;;;;;20.45;13.32;;;34.20;91.50;;;;;;4172598;28;20684;-73
2022/08/19 09:21:09;;;;;;;15.18;7.88;;;34.10;92.10;;;;;;4155834;28;20067;-73
2022/08/19 09:23:15;;;;;;;15.70;7.97;;;34.10;92.70;;;;;;4143313;28;20077;-73
2022/08/19 09:25:31;;;;;;;17.63;8.43;;;34.00;92.70;;;;;;4155469;28;20654;-73
2022/08/19 09:27:38;;;;;;;17.35;5.20;;;33.90;93.00;;;;;;4156292;28;20133;-72
2022/08/19 09:29:47;;;;;;;9.85;3.42;;;33.90;92.90;;;;;;4155687;28;20060;-71
2022/08/19 09:31:53;;;;;;;19.02;4.57;;;33.70;93.70;;;;;;4155271;28;20053;-69
2022/08/19 09:34:01;;;;;;;11.75;4.25;;;33.30;97.00;;;;;;4172045;28;20049;-68
2022/08/19 09:36:09;;;;;;;11.98;3.40;;;33.10;97.50;;;;;;4171930;28;20056;-69
2022/08/19 09:38:14;;;;;;;10.82;3.97;;;33.10;97.90;;;;;;4172309;28;20098;-68
2022/08/19 09:40:20;;;;;;;12.15;5.05;;;33.10;99.10;;;;;;4155506;28;20655;-69
2022/08/19 09:42:27;;;;;;;14.38;5.97;;;32.70;99.90;;;;;;4171827;28;20047;-69
2022/08/19 09:44:38;;;;;;;37.28;17.92;;;32.70;99.90;;;;;;4155481;28;20144;-70
2022/08/19 09:46:46;;;;;;;25.27;13.70;;;32.80;99.90;;;;;;4171677;28;20518;-69
2022/08/19 09:48:52;;;;;;;17.38;8.40;;;32.70;99.90;;;;;;4170673;28;20044;-70
2022/08/19 09:51:06;;;;;;;14.27;7.90;;;32.70;99.90;;;;;;4140771;28;20088;-70
2022/08/19 09:53:14;;;;;;;15.77;7.90;;;32.60;99.90;;;;;;4171659;28;20804;-69
2022/08/19 09:55:18;;;;;;;10.70;5.25;;;32.50;99.90;;;;;;4202036;28;20662;-72
2022/08/19 09:57:23;;;;;;;8.10;4.65;;;32.40;99.90;;;;;;4208399;28;20691;-71
2022/08/19 09:59:30;;;;;;;12.10;5.30;;;32.40;99.90;;;;;;4208001;28;20409;-72
2022/08/19 10:01:36;;;;;;;10.30;5.68;;;32.40;99.90;;;;;;4208253;28;20440;-72
2022/08/19 10:03:41;;;;;;;14.68;8.27;;;32.40;99.90;;;;;;4208062;28;20139;-72
2022/08/19 10:05:47;;;;;;;12.82;7.00;;;32.40;99.90;;;;;;4206418;28;20044;-74
2022/08/19 10:08:00;;;;;;;12.00;4.90;;;32.40;99.90;;;;;;4206892;28;20966;-73
2022/08/19 10:10:09;;;;;;;8.23;4.03;;;32.20;99.90;;;;;;4208017;28;20052;-72
2022/08/19 10:12:15;;;;;;;9.30;3.10;;;32.10;99.90;;;;;;4208055;28;20044;-71
2022/08/19 10:14:23;;;;;;;5.53;3.13;;;31.90;99.90;;;;;;4201495;28;20054;-69
2022/08/19 10:16:27;;;;;;;5.15;3.38;;;31.90;99.90;;;;;;4208033;28;20051;-70
2022/08/19 10:18:35;;;;;;;7.63;3.25;;;32.00;99.90;;;;;;4207162;28;20529;-70
2022/08/19 10:20:41;;;;;;;8.65;4.15;;;31.90;99.90;;;;;;4207047;28;20143;-72
2022/08/19 10:22:46;;;;;;;8.85;5.03;;;31.90;99.90;;;;;;4202743;28;20036;-70
2022/08/19 10:24:56;;;;;;;13.57;4.43;;;31.90;99.90;;;;;;4190784;28;20739;-71
2022/08/19 10:27:05;;;;;;;9.38;3.70;;;31.60;99.90;;;;;;4191083;28;20049;-71
2022/08/19 10:29:11;;;;;;;10.15;3.72;;;31.60;99.90;;;;;;4206793;28;20048;-71
2022/08/19 10:31:38;;;;;;;9.73;4.22;;;31.60;99.90;;;;;;4207728;28;20545;-70
2022/08/19 10:34:04;;;;;;;10.20;3.97;;;31.80;99.90;;;;;;4206046;28;20043;-71
2022/08/19 10:36:11;;;;;;;7.47;3.55;;;31.60;99.90;;;;;;4206765;28;20495;-70
2022/08/19 10:38:17;;;;;;;11.30;3.95;;;31.60;99.90;;;;;;4206398;28;20040;-70
2022/08/19 10:40:34;;;;;;;10.77;3.88;;;31.60;99.90;;;;;;4205502;28;20105;-70
2022/08/19 10:42:39;;;;;;;11.38;3.53;;;31.60;99.90;;;;;;4205231;28;20126;-70
2022/08/19 10:44:44;;;;;;;11.13;4.00;;;31.60;99.90;;;;;;4202732;28;20101;-70
2022/08/19 10:46:48;;;;;;;6.00;2.90;;;31.60;99.90;;;;;;4205442;28;20051;-71
2022/08/19 10:48:54;;;;;;;9.48;3.15;;;31.40;99.90;;;;;;4204922;28;20607;-71
2022/08/19 10:53:25;;;;;;;8.30;2.92;;;31.40;99.90;;;;;;4201214;28;20048;-70
2022/08/19 10:57:46;;;;;;;5.72;3.05;;;31.50;99.90;;;;;;4201863;28;20041;-70
2022/08/19 11:00:07;;;;;;;8.20;2.92;;;31.50;99.90;;;;;;4204482;28;20071;-69
2022/08/19 11:02:12;;;;;;;12.23;3.08;;;31.20;99.90;;;;;;4205898;28;20469;-72
2022/08/19 11:04:19;;;;;;;11.30;3.08;;;31.20;99.90;;;;;;4203484;28;20505;-71
2022/08/19 11:06:34;;;;;;;8.40;2.88;;;31.20;99.90;;;;;;4204109;28;20568;-72
2022/08/19 11:08:39;;;;;;;12.75;3.30;;;31.10;99.90;;;;;;4204369;28;20121;-73
2022/08/19 11:10:46;;;;;;;11.05;2.83;;;31.20;99.90;;;;;;4204747;28;20040;-71
2022/08/19 11:12:54;;;;;;;9.18;3.03;;;31.20;99.90;;;;;;4184992;28;20072;-71
2022/08/19 11:14:59;;;;;;;8.27;2.90;;;31.20;99.90;;;;;;4205072;28;20055;-71
2022/08/19 11:17:04;;;;;;;7.47;3.40;;;31.30;99.90;;;;;;4202818;28;20135;-70
2022/08/19 11:19:11;;;;;;;6.57;3.45;;;31.30;99.90;;;;;;4204263;28;20036;-70
2022/08/19 11:21:23;;;;;;;6.38;2.83;;;31.30;99.90;;;;;;4202865;28;20696;-70
2022/08/19 11:23:27;;;;;;;7.60;3.15;;;31.30;99.90;;;;;;4201776;28;20046;-70
2022/08/19 11:25:35;;;;;;;9.35;3.25;;;31.20;99.90;;;;;;4185083;28;20044;-71
2022/08/19 11:27:42;;;;;;;8.98;3.70;;;31.20;99.90;;;;;;4204988;28;20059;-70
2022/08/19 11:29:47;;;;;;;5.35;3.15;;;31.20;99.90;;;;;;4205141;28;20051;-70